sensor_id;sensor_type;location;lat;lon;timestamp;P1;durP1;ratioP1;P2;durP2;ratioP2
56810;SDS011;42691;47.234;27.494;2023-02-18T00:00:21;17.40;;;12.05;;
56810;SDS011;42691;47.234;27.494;2023-02-18T00:02:47;12.23;;;10.60;;
56810;SDS011;42691;47.234;27.494;2023-02-18T00:05:13;14.55;;;10.88;;
56810;SDS011;42691;47.234;27.494;2023-02-18T00:07:39;15.65;;;10.80;;
56810;SDS011;42691;47.234;27.494;2023-02-18T00:10:06;16.67;;;10.70;;
56810;SDS011;42691;47.234;27.494;2023-02-18T00:12:33;16.23;;;12.85;;
56810;SDS011;42691;47.234;27.494;2023-02-18T00:14:59;14.45;;;12.65;;
56810;SDS011;42691;47.234;27.494;2023-02-18T00:17:24;16.60;;;12.02;;
56810;SDS011;42691;47.234;27.494;2023-02-18T00:19:50;18.40;;;11.25;;
56810;SDS011;42691;47.234;27.494;2023-02-18T00:22:15;16.38;;;12.23;;
56810;SDS011;42691;47.234;27.494;2023-02-18T00:24:41;20.10;;;14.70;;
56810;SDS011;42691;47.234;27.494;2023-02-18T00:27:06;15.60;;;12.00;;
56810;SDS011;42691;47.234;27.494;2023-02-18T00:29:32;19.45;;;14.23;;
56810;SDS011;42691;47.234;27.494;2023-02-18T00:31:57;15.52;;;12.60;;
56810;SDS011;42691;47.234;27.494;2023-02-18T00:34:23;18.13;;;14.65;;
56810;SDS011;42691;47.234;27.494;2023-02-18T00:36:49;15.90;;;10.80;;
56810;SDS011;42691;47.234;27.494;2023-02-18T00:39:14;14.35;;;11.88;;
56810;SDS011;42691;47.234;27.494;2023-02-18T00:41:40;20.20;;;13.55;;
56810;SDS011;42691;47.234;27.494;2023-02-18T00:44:06;15.57;;;10.68;;
56810;SDS011;42691;47.234;27.494;2023-02-18T00:46:31;17.00;;;11.85;;
56810;SDS011;42691;47.234;27.494;2023-02-18T00:48:57;24.50;;;12.10;;
56810;SDS011;42691;47.234;27.494;2023-02-18T00:51:23;15.07;;;13.15;;
56810;SDS011;42691;47.234;27.494;2023-02-18T00:53:49;13.15;;;10.48;;
56810;SDS011;42691;47.234;27.494;2023-02-18T00:56:15;14.98;;;10.52;;
56810;SDS011;42691;47.234;27.494;2023-02-18T00:58:41;20.33;;;14.63;;
56810;SDS011;42691;47.234;27.494;2023-02-18T01:01:06;19.52;;;14.95;;
56810;SDS011;42691;47.234;27.494;2023-02-18T01:03:34;15.75;;;11.30;;
56810;SDS011;42691;47.234;27.494;2023-02-18T01:06:00;20.30;;;10.77;;
56810;SDS011;42691;47.234;27.494;2023-02-18T01:08:26;18.15;;;13.05;;
56810;SDS011;42691;47.234;27.494;2023-02-18T01:10:54;13.57;;;10.10;;
56810;SDS011;42691;47.234;27.494;2023-02-18T01:13:21;15.40;;;10.25;;
56810;SDS011;42691;47.234;27.494;2023-02-18T01:15:47;18.30;;;11.77;;
56810;SDS011;42691;47.234;27.494;2023-02-18T01:18:13;17.48;;;11.18;;
56810;SDS011;42691;47.234;27.494;2023-02-18T01:20:39;10.27;;;9.02;;
56810;SDS011;42691;47.234;27.494;2023-02-18T01:23:06;14.23;;;11.82;;
56810;SDS011;42691;47.234;27.494;2023-02-18T01:25:32;12.85;;;8.80;;
56810;SDS011;42691;47.234;27.494;2023-02-18T01:27:58;15.52;;;10.15;;
56810;SDS011;42691;47.234;27.494;2023-02-18T01:30:24;25.90;;;11.13;;
56810;SDS011;42691;47.234;27.494;2023-02-18T01:32:49;11.48;;;9.10;;
56810;SDS011;42691;47.234;27.494;2023-02-18T01:35:16;13.63;;;11.15;;
56810;SDS011;42691;47.234;27.494;2023-02-18T01:37:43;12.70;;;8.30;;
56810;SDS011;42691;47.234;27.494;2023-02-18T01:40:11;11.43;;;9.18;;
56810;SDS011;42691;47.234;27.494;2023-02-18T01:42:39;14.25;;;9.95;;
56810;SDS011;42691;47.234;27.494;2023-02-18T01:48:17;18.50;;;9.38;;
56810;SDS011;42691;47.234;27.494;2023-02-18T01:50:48;14.38;;;9.48;;
56810;SDS011;42691;47.234;27.494;2023-02-18T01:53:18;17.88;;;10.68;;
56810;SDS011;42691;47.234;27.494;2023-02-18T01:55:48;14.05;;;10.25;;
56810;SDS011;42691;47.234;27.494;2023-02-18T01:58:13;12.90;;;9.00;;
56810;SDS011;42691;47.234;27.494;2023-02-18T02:00:39;12.88;;;10.65;;
56810;SDS011;42691;47.234;27.494;2023-02-18T02:03:05;10.95;;;8.27;;
56810;SDS011;42691;47.234;27.494;2023-02-18T02:05:31;15.00;;;10.15;;
56810;SDS011;42691;47.234;27.494;2023-02-18T02:07:58;13.88;;;9.55;;
56810;SDS011;42691;47.234;27.494;2023-02-18T02:10:34;11.93;;;10.20;;
56810;SDS011;42691;47.234;27.494;2023-02-18T02:13:06;13.18;;;8.93;;
56810;SDS011;42691;47.234;27.494;2023-02-18T02:15:49;13.65;;;9.27;;
56810;SDS011;42691;47.234;27.494;2023-02-18T02:34:31;9.95;;;7.32;;
56810;SDS011;42691;47.234;27.494;2023-02-18T02:39:33;15.73;;;9.18;;
56810;SDS011;42691;47.234;27.494;2023-02-18T02:48:11;12.18;;;8.95;;
56810;SDS011;42691;47.234;27.494;2023-02-18T02:50:45;11.60;;;10.23;;
56810;SDS011;42691;47.234;27.494;2023-02-18T02:53:19;15.00;;;8.45;;
56810;SDS011;42691;47.234;27.494;2023-02-18T02:55:49;11.70;;;9.32;;
56810;SDS011;42691;47.234;27.494;2023-02-18T02:58:15;13.38;;;9.02;;
56810;SDS011;42691;47.234;27.494;2023-02-18T03:06:40;16.40;;;8.75;;
56810;SDS011;42691;47.234;27.494;2023-02-18T03:18:15;11.40;;;9.10;;
56810;SDS011;42691;47.234;27.494;2023-02-18T03:20:34;12.15;;;8.13;;
56810;SDS011;42691;47.234;27.494;2023-02-18T03:23:04;13.88;;;9.05;;
56810;SDS011;42691;47.234;27.494;2023-02-18T03:25:34;14.68;;;9.60;;
56810;SDS011;42691;47.234;27.494;2023-02-18T03:28:07;20.40;;;11.05;;
56810;SDS011;42691;47.234;27.494;2023-02-18T03:30:46;12.30;;;10.25;;
56810;SDS011;42691;47.234;27.494;2023-02-18T03:33:20;14.20;;;9.77;;
56810;SDS011;42691;47.234;27.494;2023-02-18T03:35:50;12.73;;;10.00;;
56810;SDS011;42691;47.234;27.494;2023-02-18T03:41:02;24.10;;;11.30;;
56810;SDS011;42691;47.234;27.494;2023-02-18T03:43:29;13.88;;;10.40;;
56810;SDS011;42691;47.234;27.494;2023-02-18T03:45:55;15.05;;;8.52;;
56810;SDS011;42691;47.234;27.494;2023-02-18T03:48:21;9.98;;;8.07;;
56810;SDS011;42691;47.234;27.494;2023-02-18T03:50:47;10.38;;;8.07;;
56810;SDS011;42691;47.234;27.494;2023-02-18T03:53:12;13.73;;;10.52;;
56810;SDS011;42691;47.234;27.494;2023-02-18T03:55:38;12.65;;;8.70;;
56810;SDS011;42691;47.234;27.494;2023-02-18T03:58:03;12.27;;;7.93;;
56810;SDS011;42691;47.234;27.494;2023-02-18T04:00:28;10.60;;;8.48;;
56810;SDS011;42691;47.234;27.494;2023-02-18T04:02:54;11.70;;;7.85;;
56810;SDS011;42691;47.234;27.494;2023-02-18T04:05:19;13.13;;;9.15;;
56810;SDS011;42691;47.234;27.494;2023-02-18T04:07:45;10.38;;;7.68;;
56810;SDS011;42691;47.234;27.494;2023-02-18T04:10:10;14.00;;;9.00;;
56810;SDS011;42691;47.234;27.494;2023-02-18T04:12:36;10.18;;;6.30;;
56810;SDS011;42691;47.234;27.494;2023-02-18T04:15:01;11.48;;;8.30;;
56810;SDS011;42691;47.234;27.494;2023-02-18T04:17:27;11.10;;;7.35;;
56810;SDS011;42691;47.234;27.494;2023-02-18T04:19:52;11.05;;;7.47;;
56810;SDS011;42691;47.234;27.494;2023-02-18T04:22:17;12.70;;;8.07;;
56810;SDS011;42691;47.234;27.494;2023-02-18T04:24:43;17.80;;;10.13;;
56810;SDS011;42691;47.234;27.494;2023-02-18T04:27:08;10.90;;;7.90;;
56810;SDS011;42691;47.234;27.494;2023-02-18T04:29:34;14.70;;;8.60;;
56810;SDS011;42691;47.234;27.494;2023-02-18T04:31:59;15.90;;;8.82;;
56810;SDS011;42691;47.234;27.494;2023-02-18T04:34:25;16.75;;;9.50;;
56810;SDS011;42691;47.234;27.494;2023-02-18T04:36:50;10.55;;;7.65;;
56810;SDS011;42691;47.234;27.494;2023-02-18T04:39:16;9.85;;;6.82;;
56810;SDS011;42691;47.234;27.494;2023-02-18T04:41:41;14.05;;;7.72;;
56810;SDS011;42691;47.234;27.494;2023-02-18T04:44:07;11.18;;;8.73;;
56810;SDS011;42691;47.234;27.494;2023-02-18T04:46:32;10.50;;;7.85;;
56810;SDS011;42691;47.234;27.494;2023-02-18T04:48:58;8.93;;;7.75;;
56810;SDS011;42691;47.234;27.494;2023-02-18T04:51:23;11.00;;;8.80;;
56810;SDS011;42691;47.234;27.494;2023-02-18T04:53:48;10.38;;;8.40;;
56810;SDS011;42691;47.234;27.494;2023-02-18T04:56:14;8.73;;;6.60;;
56810;SDS011;42691;47.234;27.494;2023-02-18T04:58:40;11.93;;;7.50;;
56810;SDS011;42691;47.234;27.494;2023-02-18T05:01:05;15.27;;;7.55;;
56810;SDS011;42691;47.234;27.494;2023-02-18T05:03:31;7.90;;;7.05;;
56810;SDS011;42691;47.234;27.494;2023-02-18T05:05:57;9.45;;;6.85;;
56810;SDS011;42691;47.234;27.494;2023-02-18T05:08:22;13.23;;;8.05;;
56810;SDS011;42691;47.234;27.494;2023-02-18T05:10:48;9.05;;;7.03;;
56810;SDS011;42691;47.234;27.494;2023-02-18T05:13:13;28.23;;;9.68;;
56810;SDS011;42691;47.234;27.494;2023-02-18T05:15:39;10.15;;;5.60;;
56810;SDS011;42691;47.234;27.494;2023-02-18T05:18:04;13.25;;;7.25;;
56810;SDS011;42691;47.234;27.494;2023-02-18T05:20:30;9.65;;;5.70;;
56810;SDS011;42691;47.234;27.494;2023-02-18T05:22:55;11.50;;;8.05;;
56810;SDS011;42691;47.234;27.494;2023-02-18T05:25:21;18.42;;;6.80;;
56810;SDS011;42691;47.234;27.494;2023-02-18T05:27:46;13.60;;;6.40;;
56810;SDS011;42691;47.234;27.494;2023-02-18T05:30:12;9.57;;;6.40;;
56810;SDS011;42691;47.234;27.494;2023-02-18T05:32:38;10.35;;;7.68;;
56810;SDS011;42691;47.234;27.494;2023-02-18T05:35:03;8.98;;;6.10;;
56810;SDS011;42691;47.234;27.494;2023-02-18T05:37:29;10.18;;;6.88;;
56810;SDS011;42691;47.234;27.494;2023-02-18T05:39:55;8.10;;;6.78;;
56810;SDS011;42691;47.234;27.494;2023-02-18T05:42:20;9.20;;;5.18;;
56810;SDS011;42691;47.234;27.494;2023-02-18T05:44:47;7.40;;;6.28;;
56810;SDS011;42691;47.234;27.494;2023-02-18T05:47:12;7.28;;;5.88;;
56810;SDS011;42691;47.234;27.494;2023-02-18T05:49:38;7.32;;;5.38;;
56810;SDS011;42691;47.234;27.494;2023-02-18T05:52:05;9.50;;;5.45;;
56810;SDS011;42691;47.234;27.494;2023-02-18T05:54:32;7.18;;;4.43;;
56810;SDS011;42691;47.234;27.494;2023-02-18T05:56:58;8.15;;;5.18;;
56810;SDS011;42691;47.234;27.494;2023-02-18T05:59:23;7.43;;;4.65;;
56810;SDS011;42691;47.234;27.494;2023-02-18T06:01:50;8.52;;;4.80;;
56810;SDS011;42691;47.234;27.494;2023-02-18T06:04:15;10.48;;;7.00;;
56810;SDS011;42691;47.234;27.494;2023-02-18T06:06:41;6.35;;;4.07;;
56810;SDS011;42691;47.234;27.494;2023-02-18T06:09:07;6.28;;;4.38;;
56810;SDS011;42691;47.234;27.494;2023-02-18T06:11:33;7.10;;;4.75;;
56810;SDS011;42691;47.234;27.494;2023-02-18T06:13:59;5.63;;;3.63;;
56810;SDS011;42691;47.234;27.494;2023-02-18T06:16:25;6.72;;;4.05;;
56810;SDS011;42691;47.234;27.494;2023-02-18T06:18:51;4.13;;;3.17;;
56810;SDS011;42691;47.234;27.494;2023-02-18T06:21:16;5.15;;;3.17;;
56810;SDS011;42691;47.234;27.494;2023-02-18T06:23:42;4.68;;;3.25;;
56810;SDS011;42691;47.234;27.494;2023-02-18T06:26:07;6.90;;;3.75;;
56810;SDS011;42691;47.234;27.494;2023-02-18T06:28:33;6.53;;;4.13;;
56810;SDS011;42691;47.234;27.494;2023-02-18T06:30:58;3.72;;;3.25;;
56810;SDS011;42691;47.234;27.494;2023-02-18T06:33:24;6.72;;;4.68;;
56810;SDS011;42691;47.234;27.494;2023-02-18T06:36:22;9.05;;;4.63;;
56810;SDS011;42691;47.234;27.494;2023-02-18T06:38:42;7.10;;;4.53;;
56810;SDS011;42691;47.234;27.494;2023-02-18T06:41:09;9.20;;;5.45;;
56810;SDS011;42691;47.234;27.494;2023-02-18T06:43:36;10.85;;;5.15;;
56810;SDS011;42691;47.234;27.494;2023-02-18T06:46:01;9.85;;;4.75;;
56810;SDS011;42691;47.234;27.494;2023-02-18T06:48:28;6.97;;;4.15;;
56810;SDS011;42691;47.234;27.494;2023-02-18T06:50:53;9.25;;;4.93;;
56810;SDS011;42691;47.234;27.494;2023-02-18T06:53:19;4.85;;;4.35;;
56810;SDS011;42691;47.234;27.494;2023-02-18T06:55:45;3.40;;;2.92;;
56810;SDS011;42691;47.234;27.494;2023-02-18T06:58:12;4.32;;;3.30;;
56810;SDS011;42691;47.234;27.494;2023-02-18T07:00:38;4.38;;;3.45;;
56810;SDS011;42691;47.234;27.494;2023-02-18T07:03:04;8.82;;;4.47;;
56810;SDS011;42691;47.234;27.494;2023-02-18T07:05:29;23.05;;;6.60;;
56810;SDS011;42691;47.234;27.494;2023-02-18T07:07:55;15.35;;;5.80;;
56810;SDS011;42691;47.234;27.494;2023-02-18T07:10:20;11.13;;;4.45;;
56810;SDS011;42691;47.234;27.494;2023-02-18T07:12:46;4.50;;;3.13;;
56810;SDS011;42691;47.234;27.494;2023-02-18T07:15:12;5.65;;;3.38;;
56810;SDS011;42691;47.234;27.494;2023-02-18T07:17:37;19.35;;;3.95;;
56810;SDS011;42691;47.234;27.494;2023-02-18T07:20:03;11.93;;;3.55;;
56810;SDS011;42691;47.234;27.494;2023-02-18T07:22:30;6.15;;;3.25;;
56810;SDS011;42691;47.234;27.494;2023-02-18T07:24:55;2.90;;;2.20;;
56810;SDS011;42691;47.234;27.494;2023-02-18T07:27:21;4.93;;;2.95;;
56810;SDS011;42691;47.234;27.494;2023-02-18T07:29:47;23.52;;;5.13;;
56810;SDS011;42691;47.234;27.494;2023-02-18T07:32:13;4.70;;;3.78;;
56810;SDS011;42691;47.234;27.494;2023-02-18T07:34:40;4.97;;;3.00;;
56810;SDS011;42691;47.234;27.494;2023-02-18T07:37:06;6.18;;;3.13;;
56810;SDS011;42691;47.234;27.494;2023-02-18T07:39:38;6.15;;;4.03;;
56810;SDS011;42691;47.234;27.494;2023-02-18T07:42:04;4.47;;;2.97;;
56810;SDS011;42691;47.234;27.494;2023-02-18T07:44:30;5.88;;;4.07;;
56810;SDS011;42691;47.234;27.494;2023-02-18T07:46:55;7.72;;;3.72;;
56810;SDS011;42691;47.234;27.494;2023-02-18T07:49:21;7.57;;;4.80;;
56810;SDS011;42691;47.234;27.494;2023-02-18T07:51:47;6.60;;;4.30;;
56810;SDS011;42691;47.234;27.494;2023-02-18T07:54:13;7.32;;;5.55;;
56810;SDS011;42691;47.234;27.494;2023-02-18T07:56:39;9.30;;;5.82;;
56810;SDS011;42691;47.234;27.494;2023-02-18T07:59:05;8.05;;;5.53;;
56810;SDS011;42691;47.234;27.494;2023-02-18T08:01:31;5.97;;;5.30;;
56810;SDS011;42691;47.234;27.494;2023-02-18T08:03:56;16.58;;;5.38;;
56810;SDS011;42691;47.234;27.494;2023-02-18T08:06:25;8.30;;;5.03;;
56810;SDS011;42691;47.234;27.494;2023-02-18T08:08:54;12.02;;;4.90;;
56810;SDS011;42691;47.234;27.494;2023-02-18T08:11:20;10.70;;;5.43;;
56810;SDS011;42691;47.234;27.494;2023-02-18T08:13:46;7.30;;;4.22;;
56810;SDS011;42691;47.234;27.494;2023-02-18T08:16:12;5.75;;;3.47;;
56810;SDS011;42691;47.234;27.494;2023-02-18T08:18:38;11.15;;;4.78;;
56810;SDS011;42691;47.234;27.494;2023-02-18T08:21:04;12.50;;;4.38;;
56810;SDS011;42691;47.234;27.494;2023-02-18T08:23:29;20.08;;;5.75;;
56810;SDS011;42691;47.234;27.494;2023-02-18T08:25:55;13.15;;;6.68;;
56810;SDS011;42691;47.234;27.494;2023-02-18T08:28:21;6.03;;;3.95;;
56810;SDS011;42691;47.234;27.494;2023-02-18T08:30:49;11.55;;;4.40;;
56810;SDS011;42691;47.234;27.494;2023-02-18T08:33:17;10.70;;;3.75;;
56810;SDS011;42691;47.234;27.494;2023-02-18T08:35:44;8.82;;;4.20;;
56810;SDS011;42691;47.234;27.494;2023-02-18T08:38:10;10.02;;;5.00;;
56810;SDS011;42691;47.234;27.494;2023-02-18T08:40:36;5.85;;;3.55;;
56810;SDS011;42691;47.234;27.494;2023-02-18T08:43:01;5.95;;;4.18;;
56810;SDS011;42691;47.234;27.494;2023-02-18T08:45:27;6.97;;;4.03;;
56810;SDS011;42691;47.234;27.494;2023-02-18T08:47:52;3.65;;;3.25;;
56810;SDS011;42691;47.234;27.494;2023-02-18T08:50:18;3.65;;;2.00;;
56810;SDS011;42691;47.234;27.494;2023-02-18T08:52:45;3.85;;;3.22;;
56810;SDS011;42691;47.234;27.494;2023-02-18T08:55:11;5.30;;;2.47;;
56810;SDS011;42691;47.234;27.494;2023-02-18T08:57:37;2.35;;;2.00;;
56810;SDS011;42691;47.234;27.494;2023-02-18T09:00:02;4.47;;;2.70;;
56810;SDS011;42691;47.234;27.494;2023-02-18T09:02:29;4.07;;;3.17;;
56810;SDS011;42691;47.234;27.494;2023-02-18T09:04:55;7.07;;;3.83;;
56810;SDS011;42691;47.234;27.494;2023-02-18T09:07:21;4.57;;;2.63;;
56810;SDS011;42691;47.234;27.494;2023-02-18T09:09:46;3.95;;;2.85;;
56810;SDS011;42691;47.234;27.494;2023-02-18T09:12:11;5.20;;;2.90;;
56810;SDS011;42691;47.234;27.494;2023-02-18T09:14:37;4.10;;;2.45;;
56810;SDS011;42691;47.234;27.494;2023-02-18T09:17:03;3.83;;;1.85;;
56810;SDS011;42691;47.234;27.494;2023-02-18T09:19:28;4.55;;;1.90;;
56810;SDS011;42691;47.234;27.494;2023-02-18T09:21:54;4.10;;;2.28;;
56810;SDS011;42691;47.234;27.494;2023-02-18T09:24:21;2.83;;;2.10;;
56810;SDS011;42691;47.234;27.494;2023-02-18T09:26:48;5.05;;;3.30;;
56810;SDS011;42691;47.234;27.494;2023-02-18T09:29:14;3.20;;;2.17;;
56810;SDS011;42691;47.234;27.494;2023-02-18T09:31:40;5.32;;;2.70;;
56810;SDS011;42691;47.234;27.494;2023-02-18T09:34:06;3.85;;;2.58;;
56810;SDS011;42691;47.234;27.494;2023-02-18T09:36:32;3.92;;;1.92;;
56810;SDS011;42691;47.234;27.494;2023-02-18T09:38:58;4.47;;;2.38;;
56810;SDS011;42691;47.234;27.494;2023-02-18T09:41:37;1.63;;;1.50;;
56810;SDS011;42691;47.234;27.494;2023-02-18T09:44:17;3.15;;;1.90;;
56810;SDS011;42691;47.234;27.494;2023-02-18T09:49:55;8.18;;;5.85;;
56810;SDS011;42691;47.234;27.494;2023-02-18T09:52:28;3.13;;;1.45;;
56810;SDS011;42691;47.234;27.494;2023-02-18T09:54:57;2.97;;;2.70;;
56810;SDS011;42691;47.234;27.494;2023-02-18T10:00:13;5.10;;;3.33;;
56810;SDS011;42691;47.234;27.494;2023-02-18T10:02:48;9.45;;;3.25;;
56810;SDS011;42691;47.234;27.494;2023-02-18T10:05:19;3.53;;;1.98;;
56810;SDS011;42691;47.234;27.494;2023-02-18T10:07:45;6.80;;;3.97;;
56810;SDS011;42691;47.234;27.494;2023-02-18T10:12:52;3.70;;;2.58;;
56810;SDS011;42691;47.234;27.494;2023-02-18T10:15:20;8.18;;;3.47;;
56810;SDS011;42691;47.234;27.494;2023-02-18T10:17:48;4.13;;;1.90;;
56810;SDS011;42691;47.234;27.494;2023-02-18T10:20:16;7.13;;;2.97;;
56810;SDS011;42691;47.234;27.494;2023-02-18T10:22:47;6.68;;;3.25;;
56810;SDS011;42691;47.234;27.494;2023-02-18T10:25:16;3.70;;;3.28;;
56810;SDS011;42691;47.234;27.494;2023-02-18T10:27:44;6.05;;;3.63;;
56810;SDS011;42691;47.234;27.494;2023-02-18T10:35:51;9.05;;;5.10;;
56810;SDS011;42691;47.234;27.494;2023-02-18T10:41:15;4.22;;;2.33;;
56810;SDS011;42691;47.234;27.494;2023-02-18T10:52:05;3.95;;;2.70;;
56810;SDS011;42691;47.234;27.494;2023-02-18T10:57:24;9.18;;;3.15;;
56810;SDS011;42691;47.234;27.494;2023-02-18T10:59:54;4.53;;;2.38;;
56810;SDS011;42691;47.234;27.494;2023-02-18T11:02:38;3.97;;;1.95;;
56810;SDS011;42691;47.234;27.494;2023-02-18T11:05:38;3.58;;;2.30;;
56810;SDS011;42691;47.234;27.494;2023-02-18T11:07:59;8.77;;;2.10;;
56810;SDS011;42691;47.234;27.494;2023-02-18T11:10:30;2.05;;;1.90;;
56810;SDS011;42691;47.234;27.494;2023-02-18T11:12:59;2.55;;;1.83;;
56810;SDS011;42691;47.234;27.494;2023-02-18T11:15:30;1.55;;;1.45;;
56810;SDS011;42691;47.234;27.494;2023-02-18T11:17:57;2.75;;;1.80;;
56810;SDS011;42691;47.234;27.494;2023-02-18T11:20:37;1.67;;;1.30;;
56810;SDS011;42691;47.234;27.494;2023-02-18T11:25:36;2.75;;;1.73;;
56810;SDS011;42691;47.234;27.494;2023-02-18T11:33:20;7.03;;;1.55;;
56810;SDS011;42691;47.234;27.494;2023-02-18T11:35:54;5.97;;;2.33;;
56810;SDS011;42691;47.234;27.494;2023-02-18T11:38:25;3.00;;;1.67;;
56810;SDS011;42691;47.234;27.494;2023-02-18T11:41:03;3.05;;;1.95;;
56810;SDS011;42691;47.234;27.494;2023-02-18T11:43:35;2.33;;;1.60;;
56810;SDS011;42691;47.234;27.494;2023-02-18T11:46:22;3.85;;;2.10;;
56810;SDS011;42691;47.234;27.494;2023-02-18T11:48:49;5.30;;;1.65;;
56810;SDS011;42691;47.234;27.494;2023-02-18T11:51:19;4.68;;;2.30;;
56810;SDS011;42691;47.234;27.494;2023-02-18T11:53:54;3.05;;;2.08;;
56810;SDS011;42691;47.234;27.494;2023-02-18T11:56:32;2.83;;;2.10;;
56810;SDS011;42691;47.234;27.494;2023-02-18T11:58:59;1.35;;;1.00;;
56810;SDS011;42691;47.234;27.494;2023-02-18T12:01:27;1.33;;;1.00;;
56810;SDS011;42691;47.234;27.494;2023-02-18T12:09:39;4.68;;;2.38;;
56810;SDS011;42691;47.234;27.494;2023-02-18T12:12:12;3.70;;;2.05;;
56810;SDS011;42691;47.234;27.494;2023-02-18T12:14:42;5.78;;;2.67;;
56810;SDS011;42691;47.234;27.494;2023-02-18T12:22:43;6.20;;;1.60;;
56810;SDS011;42691;47.234;27.494;2023-02-18T12:36:38;3.42;;;1.45;;
56810;SDS011;42691;47.234;27.494;2023-02-18T12:47:30;3.13;;;1.20;;
56810;SDS011;42691;47.234;27.494;2023-02-18T12:50:13;2.97;;;1.80;;
56810;SDS011;42691;47.234;27.494;2023-02-18T13:14:47;5.35;;;3.63;;
56810;SDS011;42691;47.234;27.494;2023-02-18T13:17:21;5.32;;;2.55;;
56810;SDS011;42691;47.234;27.494;2023-02-18T13:19:51;4.75;;;1.88;;
56810;SDS011;42691;47.234;27.494;2023-02-18T13:22:21;6.60;;;3.05;;
56810;SDS011;42691;47.234;27.494;2023-02-18T13:24:49;5.53;;;2.38;;
56810;SDS011;42691;47.234;27.494;2023-02-18T13:28:02;3.45;;;1.98;;
56810;SDS011;42691;47.234;27.494;2023-02-18T13:33:14;7.47;;;3.17;;
56810;SDS011;42691;47.234;27.494;2023-02-18T13:36:04;5.40;;;1.85;;
56810;SDS011;42691;47.234;27.494;2023-02-18T13:41:25;2.17;;;1.67;;
56810;SDS011;42691;47.234;27.494;2023-02-18T13:43:51;12.35;;;2.95;;
56810;SDS011;42691;47.234;27.494;2023-02-18T13:46:19;14.75;;;8.02;;
56810;SDS011;42691;47.234;27.494;2023-02-18T13:51:27;29.50;;;16.42;;
56810;SDS011;42691;47.234;27.494;2023-02-18T13:53:55;22.20;;;12.93;;
56810;SDS011;42691;47.234;27.494;2023-02-18T13:56:51;14.82;;;6.72;;
56810;SDS011;42691;47.234;27.494;2023-02-18T13:59:31;10.10;;;5.47;;
56810;SDS011;42691;47.234;27.494;2023-02-18T14:02:34;16.05;;;4.03;;
56810;SDS011;42691;47.234;27.494;2023-02-18T14:05:20;5.70;;;3.72;;
56810;SDS011;42691;47.234;27.494;2023-02-18T14:07:49;13.60;;;7.75;;
56810;SDS011;42691;47.234;27.494;2023-02-18T14:13:39;37.58;;;17.95;;
56810;SDS011;42691;47.234;27.494;2023-02-18T14:16:06;38.67;;;25.05;;
56810;SDS011;42691;47.234;27.494;2023-02-18T14:18:33;32.20;;;16.02;;
56810;SDS011;42691;47.234;27.494;2023-02-18T14:21:34;50.08;;;22.35;;
56810;SDS011;42691;47.234;27.494;2023-02-18T14:24:02;34.75;;;16.15;;
56810;SDS011;42691;47.234;27.494;2023-02-18T14:26:35;18.05;;;14.20;;
56810;SDS011;42691;47.234;27.494;2023-02-18T14:29:13;20.35;;;10.77;;
56810;SDS011;42691;47.234;27.494;2023-02-18T14:39:44;10.95;;;5.95;;
56810;SDS011;42691;47.234;27.494;2023-02-18T14:47:33;4.80;;;2.92;;
56810;SDS011;42691;47.234;27.494;2023-02-18T14:50:16;13.23;;;5.32;;
56810;SDS011;42691;47.234;27.494;2023-02-18T14:52:51;5.30;;;3.50;;
56810;SDS011;42691;47.234;27.494;2023-02-18T14:55:24;11.68;;;5.03;;
56810;SDS011;42691;47.234;27.494;2023-02-18T14:57:54;6.63;;;3.03;;
56810;SDS011;42691;47.234;27.494;2023-02-18T15:00:26;6.88;;;3.53;;
56810;SDS011;42691;47.234;27.494;2023-02-18T15:02:56;5.28;;;3.00;;
56810;SDS011;42691;47.234;27.494;2023-02-18T15:05:28;9.55;;;4.13;;
56810;SDS011;42691;47.234;27.494;2023-02-18T15:10:30;6.03;;;2.58;;
56810;SDS011;42691;47.234;27.494;2023-02-18T15:13:13;6.38;;;2.55;;
56810;SDS011;42691;47.234;27.494;2023-02-18T15:15:42;4.10;;;2.72;;
56810;SDS011;42691;47.234;27.494;2023-02-18T15:18:19;3.42;;;1.80;;
56810;SDS011;42691;47.234;27.494;2023-02-18T15:20:49;4.35;;;2.63;;
56810;SDS011;42691;47.234;27.494;2023-02-18T15:23:15;2.90;;;1.77;;
56810;SDS011;42691;47.234;27.494;2023-02-18T15:25:43;6.80;;;2.53;;
56810;SDS011;42691;47.234;27.494;2023-02-18T15:28:23;7.25;;;2.95;;
56810;SDS011;42691;47.234;27.494;2023-02-18T15:30:51;6.10;;;4.88;;
56810;SDS011;42691;47.234;27.494;2023-02-18T15:33:17;5.55;;;3.45;;
56810;SDS011;42691;47.234;27.494;2023-02-18T15:35:44;7.00;;;3.40;;
56810;SDS011;42691;47.234;27.494;2023-02-18T15:38:14;7.65;;;2.70;;
56810;SDS011;42691;47.234;27.494;2023-02-18T15:40:41;9.07;;;3.10;;
56810;SDS011;42691;47.234;27.494;2023-02-18T15:43:11;4.32;;;2.40;;
56810;SDS011;42691;47.234;27.494;2023-02-18T15:45:42;5.00;;;2.75;;
56810;SDS011;42691;47.234;27.494;2023-02-18T15:48:44;6.20;;;2.72;;
56810;SDS011;42691;47.234;27.494;2023-02-18T15:51:09;9.23;;;3.65;;
56810;SDS011;42691;47.234;27.494;2023-02-18T15:53:37;9.57;;;3.28;;
56810;SDS011;42691;47.234;27.494;2023-02-18T15:56:08;4.72;;;2.97;;
56810;SDS011;42691;47.234;27.494;2023-02-18T15:58:35;8.45;;;3.65;;
56810;SDS011;42691;47.234;27.494;2023-02-18T16:01:04;10.13;;;4.57;;
56810;SDS011;42691;47.234;27.494;2023-02-18T16:03:45;6.75;;;3.78;;
56810;SDS011;42691;47.234;27.494;2023-02-18T16:06:18;4.88;;;4.28;;
56810;SDS011;42691;47.234;27.494;2023-02-18T16:09:06;6.57;;;4.68;;
56810;SDS011;42691;47.234;27.494;2023-02-18T16:11:39;19.38;;;11.57;;
56810;SDS011;42691;47.234;27.494;2023-02-18T16:14:30;18.05;;;11.10;;
56810;SDS011;42691;47.234;27.494;2023-02-18T16:17:17;10.30;;;6.30;;
56810;SDS011;42691;47.234;27.494;2023-02-18T16:22:43;16.92;;;9.90;;
56810;SDS011;42691;47.234;27.494;2023-02-18T16:30:24;24.30;;;12.18;;
56810;SDS011;42691;47.234;27.494;2023-02-18T16:32:53;17.80;;;11.05;;
56810;SDS011;42691;47.234;27.494;2023-02-18T16:35:19;14.93;;;7.88;;
56810;SDS011;42691;47.234;27.494;2023-02-18T16:37:45;10.55;;;5.70;;
56810;SDS011;42691;47.234;27.494;2023-02-18T16:40:22;8.73;;;6.63;;
56810;SDS011;42691;47.234;27.494;2023-02-18T16:42:51;8.35;;;5.22;;
56810;SDS011;42691;47.234;27.494;2023-02-18T16:45:18;9.95;;;7.10;;
56810;SDS011;42691;47.234;27.494;2023-02-18T16:47:45;11.35;;;6.80;;
56810;SDS011;42691;47.234;27.494;2023-02-18T16:50:16;15.88;;;8.20;;
56810;SDS011;42691;47.234;27.494;2023-02-18T16:52:44;13.50;;;7.65;;
56810;SDS011;42691;47.234;27.494;2023-02-18T16:57:43;12.77;;;6.72;;
56810;SDS011;42691;47.234;27.494;2023-02-18T17:00:08;10.30;;;5.85;;
56810;SDS011;42691;47.234;27.494;2023-02-18T17:02:34;5.28;;;3.75;;
56810;SDS011;42691;47.234;27.494;2023-02-18T17:05:00;13.57;;;6.05;;
56810;SDS011;42691;47.234;27.494;2023-02-18T17:07:25;13.60;;;5.63;;
56810;SDS011;42691;47.234;27.494;2023-02-18T17:09:51;13.43;;;5.40;;
56810;SDS011;42691;47.234;27.494;2023-02-18T17:12:16;7.07;;;4.57;;
56810;SDS011;42691;47.234;27.494;2023-02-18T17:14:42;14.95;;;4.60;;
56810;SDS011;42691;47.234;27.494;2023-02-18T17:17:10;14.43;;;7.35;;
56810;SDS011;42691;47.234;27.494;2023-02-18T17:19:45;12.55;;;5.68;;
56810;SDS011;42691;47.234;27.494;2023-02-18T17:22:12;8.05;;;5.05;;
56810;SDS011;42691;47.234;27.494;2023-02-18T17:24:37;10.77;;;5.55;;
56810;SDS011;42691;47.234;27.494;2023-02-18T17:27:03;12.27;;;5.35;;